createdAt,value
2024-02-27T00:07:13.688Z,2.30
2024-02-27T00:17:18.511Z,1.90
2024-02-27T00:27:21.791Z,2.00
2024-02-27T00:37:26.376Z,1.60
2024-02-27T00:47:29.624Z,1.60
2024-02-27T00:57:35.903Z,1.80
2024-02-27T01:07:39.241Z,1.50
2024-02-27T01:17:43.833Z,1.40
2024-02-27T01:27:47.110Z,1.30
2024-02-27T01:37:51.705Z,1.70
2024-02-27T01:47:55.686Z,1.70
2024-02-27T01:58:00.369Z,2.20
2024-02-27T02:08:04.397Z,1.60
2024-02-27T02:18:09.095Z,1.70
2024-02-27T02:28:14.995Z,1.80
2024-02-27T02:38:18.271Z,2.20
2024-02-27T02:48:23.053Z,2.20
2024-02-27T02:58:26.477Z,2.10
2024-02-27T03:08:31.068Z,2.60
2024-02-27T03:18:34.368Z,2.30
2024-02-27T03:28:39.024Z,2.60
2024-02-27T03:38:42.747Z,2.60
2024-02-27T03:48:47.403Z,2.80
2024-02-27T03:58:50.686Z,3.40
2024-02-27T04:08:55.304Z,3.30
2024-02-27T04:18:58.982Z,3.70
2024-02-27T04:29:03.606Z,3.50
2024-02-27T04:39:06.886Z,3.60
2024-02-27T04:49:11.570Z,3.70
2024-02-27T04:59:14.824Z,3.80
2024-02-27T05:09:19.420Z,3.70
2024-02-27T05:19:22.748Z,4.70
2024-02-27T05:29:27.676Z,3.80
2024-02-27T05:39:30.903Z,4.50
2024-02-27T05:49:35.523Z,4.00
2024-02-27T05:59:39.083Z,4.50
2024-02-27T06:09:43.796Z,5.60
2024-02-27T06:19:51.036Z,4.60
2024-02-27T06:29:55.668Z,4.90
2024-02-27T06:39:59.935Z,6.10
2024-02-27T06:50:04.608Z,5.80
2024-02-27T07:00:11.316Z,6.90
2024-02-27T07:10:16.066Z,7.90
2024-02-27T07:20:19.412Z,8.20
2024-02-27T07:30:25.919Z,8.70
2024-02-27T07:40:29.154Z,9.20
2024-02-27T07:50:34.342Z,9.50
2024-02-27T08:00:37.942Z,10.10
2024-02-27T08:10:42.687Z,14.70
2024-02-27T08:20:46.202Z,14.00
2024-02-27T08:30:50.994Z,16.30
2024-02-27T08:40:54.400Z,16.70
2024-02-27T08:50:59.018Z,19.00
2024-02-27T09:01:02.496Z,21.90
2024-02-27T09:11:07.287Z,23.30
2024-02-27T09:21:10.562Z,26.20
2024-02-27T09:31:23.601Z,29.20
2024-02-27T09:41:40.267Z,33.00
2024-02-27T09:51:45.122Z,35.90
2024-02-27T10:01:49.896Z,36.70
2024-02-27T10:11:54.797Z,38.90
2024-02-27T10:21:58.481Z,42.40
2024-02-27T10:32:03.957Z,42.10
2024-02-27T10:42:07.952Z,41.50
2024-02-27T10:52:13.701Z,43.60
2024-02-27T11:02:19.647Z,45.00
2024-02-27T11:12:25.872Z,40.50
2024-02-27T11:22:29.256Z,44.60
2024-02-27T11:32:38.919Z,39.80
2024-02-27T11:42:44.025Z,36.20
2024-02-27T11:52:49.023Z,34.20
2024-02-27T12:02:52.325Z,35.30
2024-02-27T12:12:57.459Z,40.10
2024-02-27T12:23:00.800Z,39.40
2024-02-27T12:33:08.335Z,34.60
2024-02-27T12:43:12.061Z,32.50
2024-02-27T12:53:17.038Z,32.20
2024-02-27T13:03:20.317Z,32.20
2024-02-27T13:13:31.071Z,29.50
2024-02-27T13:23:34.373Z,30.20
2024-02-27T13:33:39.244Z,25.10
2024-02-27T13:43:42.746Z,23.30
2024-02-27T13:53:47.455Z,22.90
2024-02-27T14:03:50.824Z,21.50
2024-02-27T14:14:03.566Z,21.10
2024-02-27T14:24:14.047Z,19.70
2024-02-27T14:34:19.561Z,19.00
2024-02-27T14:44:23.184Z,18.50
2024-02-27T14:54:28.237Z,17.70
2024-02-27T15:04:31.744Z,17.20
2024-02-27T15:14:36.584Z,16.50
2024-02-27T15:24:39.900Z,16.20
2024-02-27T15:34:45.824Z,15.60
2024-02-27T15:44:49.169Z,15.00
2024-02-27T15:54:54.097Z,14.20
2024-02-27T16:05:00.345Z,13.60
2024-02-27T16:15:06.008Z,12.60
2024-02-27T16:25:10.397Z,12.00
2024-02-27T16:35:15.678Z,11.40
2024-02-27T16:45:18.972Z,11.20
2024-02-27T16:55:23.552Z,11.10
2024-02-27T17:05:28.151Z,10.70
2024-02-27T17:15:32.952Z,11.00
2024-02-27T17:25:36.182Z,11.00
2024-02-27T17:35:40.902Z,11.00
2024-02-27T17:45:46.115Z,10.80
2024-02-27T17:55:50.805Z,10.60
2024-02-27T18:05:54.550Z,10.10
2024-02-27T18:15:59.745Z,9.80
2024-02-27T18:26:03.032Z,9.60
2024-02-27T18:36:08.534Z,9.50
2024-02-27T18:46:13.508Z,9.40
2024-02-27T18:56:18.197Z,9.30
2024-02-27T19:06:21.447Z,9.40
2024-02-27T19:16:26.159Z,9.60
2024-02-27T19:26:29.361Z,9.40
2024-02-27T19:36:34.361Z,9.40
2024-02-27T19:46:38.543Z,9.40
2024-02-27T19:56:59.204Z,9.20
2024-02-27T20:07:02.838Z,8.90
2024-02-27T20:17:07.707Z,9.00
2024-02-27T20:27:10.948Z,9.00
2024-02-27T20:37:15.639Z,9.00
2024-02-27T20:47:18.907Z,8.70
2024-02-27T20:57:23.640Z,8.70
2024-02-27T21:07:26.985Z,8.60
2024-02-27T21:17:31.664Z,8.50
2024-02-27T21:27:34.982Z,8.20
2024-02-27T21:37:39.683Z,8.60
2024-02-27T21:47:42.959Z,8.20
2024-02-27T21:57:47.703Z,8.20
2024-02-27T22:07:51.032Z,7.40
2024-02-27T22:17:55.662Z,8.50
2024-02-27T22:27:59.027Z,8.20
2024-02-27T22:38:07.661Z,8.10
2024-02-27T22:48:11.045Z,8.00
2024-02-27T22:58:16.216Z,9.00
2024-02-27T23:08:19.448Z,8.10
2024-02-27T23:18:24.627Z,8.50
2024-02-27T23:28:27.948Z,7.90
2024-02-27T23:38:32.561Z,8.10
2024-02-27T23:48:35.808Z,8.10
2024-02-27T23:58:40.413Z,8.00
